createdAt,value
2017-10-29T00:00:04.506Z,0
2017-10-29T00:01:26.713Z,0
2017-10-29T00:02:42.807Z,0
2017-10-29T00:04:36.490Z,0
2017-10-29T00:06:06.652Z,0
2017-10-29T00:14:22.925Z,0
2017-10-29T00:17:10.949Z,0
2017-10-29T00:18:51.261Z,0
2017-10-29T00:20:03.398Z,0
2017-10-29T00:21:16.681Z,0
2017-10-29T00:22:28.079Z,0
2017-10-29T00:23:39.542Z,0
2017-10-29T00:24:50.996Z,0
2017-10-29T00:26:03.334Z,0
2017-10-29T00:27:13.086Z,0
2017-10-29T00:28:24.035Z,0
2017-10-29T00:29:36.132Z,0
2017-10-29T00:30:47.987Z,0
2017-10-29T00:31:58.388Z,0
2017-10-29T00:33:08.813Z,0
2017-10-29T00:34:19.238Z,0
2017-10-29T00:35:29.306Z,0
2017-10-29T00:36:39.713Z,0
2017-10-29T00:37:50.104Z,0
2017-10-29T00:39:00.496Z,0
2017-10-29T00:40:10.918Z,0
2017-10-29T00:41:20.989Z,0
2017-10-29T00:42:31.061Z,0
2017-10-29T00:43:40.789Z,0
2017-10-29T00:44:50.880Z,0
2017-10-29T00:46:01.278Z,0
2017-10-29T00:47:11.734Z,0
2017-10-29T00:48:22.146Z,0
2017-10-29T00:49:32.223Z,0
2017-10-29T00:50:42.624Z,0
2017-10-29T00:51:52.696Z,0
2017-10-29T00:53:03.096Z,0
2017-10-29T00:54:13.182Z,0
2017-10-29T00:55:23.575Z,0
2017-10-29T00:56:33.661Z,0
2017-10-29T00:57:44.123Z,0
2017-10-29T00:58:54.223Z,0
2017-10-29T01:00:04.647Z,0
2017-10-29T01:01:15.064Z,0
2017-10-29T01:02:25.475Z,0
2017-10-29T01:03:35.889Z,0
2017-10-29T01:04:46.312Z,0
2017-10-29T01:05:56.370Z,0
2017-10-29T01:07:06.444Z,0
2017-10-29T01:08:16.865Z,0
2017-10-29T01:09:27.314Z,0
2017-10-29T01:10:37.729Z,0
2017-10-29T01:11:48.129Z,0
2017-10-29T01:12:58.208Z,0
2017-10-29T01:14:08.618Z,0
2017-10-29T01:15:19.012Z,0
2017-10-29T01:16:28.760Z,0
2017-10-29T01:17:39.160Z,0
2017-10-29T01:18:49.602Z,0
2017-10-29T01:19:59.661Z,0
2017-10-29T01:21:09.795Z,0
2017-10-29T01:22:19.871Z,0
2017-10-29T01:23:29.936Z,0
2017-10-29T01:24:40.949Z,0
2017-10-29T01:25:51.353Z,0
2017-10-29T01:27:01.755Z,0
2017-10-29T01:28:11.837Z,0
2017-10-29T01:29:22.240Z,0
2017-10-29T01:30:32.320Z,0
2017-10-29T01:31:42.720Z,0
2017-10-29T01:32:53.130Z,0
2017-10-29T01:34:03.554Z,0
2017-10-29T01:35:13.964Z,0
2017-10-29T01:36:24.367Z,0
2017-10-29T01:37:34.443Z,0
2017-10-29T01:38:44.891Z,0
2017-10-29T01:39:55.281Z,0
2017-10-29T01:41:05.691Z,0
2017-10-29T01:42:16.110Z,0
2017-10-29T01:43:26.178Z,0
2017-10-29T01:44:36.234Z,0
2017-10-29T01:45:46.622Z,0
2017-10-29T01:46:57.024Z,0
2017-10-29T01:48:07.095Z,0
2017-10-29T01:49:17.181Z,0
2017-10-29T01:50:27.572Z,0
2017-10-29T01:51:37.976Z,0
2017-10-29T01:52:47.708Z,0
2017-10-29T01:53:58.110Z,0
2017-10-29T01:55:08.515Z,0
2017-10-29T01:56:18.908Z,0
2017-10-29T01:57:28.979Z,0
2017-10-29T01:58:39.389Z,0
2017-10-29T01:59:49.791Z,0
2017-10-29T02:01:00.207Z,0
2017-10-29T02:02:10.650Z,0
2017-10-29T02:03:21.028Z,0
2017-10-29T02:04:30.806Z,0
2017-10-29T02:05:41.196Z,0
2017-10-29T02:06:51.265Z,0
2017-10-29T02:08:01.674Z,0
2017-10-29T02:09:12.076Z,0
2017-10-29T02:10:22.462Z,0
2017-10-29T02:11:32.559Z,0
2017-10-29T02:12:42.961Z,0
2017-10-29T02:13:53.347Z,0
2017-10-29T02:15:03.744Z,0
2017-10-29T02:16:14.148Z,0
2017-10-29T02:17:24.542Z,0
2017-10-29T02:18:34.947Z,0
2017-10-29T02:19:45.067Z,0
2017-10-29T02:20:56.117Z,0
2017-10-29T02:22:06.533Z,0
2017-10-29T02:23:16.622Z,0
2017-10-29T02:24:26.690Z,0
2017-10-29T02:25:37.098Z,0
2017-10-29T02:26:47.488Z,0
2017-10-29T02:27:57.554Z,0
2017-10-29T02:29:07.634Z,0
2017-10-29T02:30:18.043Z,0
2017-10-29T02:31:28.125Z,0
2017-10-29T02:32:38.195Z,0
2017-10-29T02:33:48.264Z,0
2017-10-29T02:34:58.331Z,0
2017-10-29T02:36:08.103Z,0
2017-10-29T02:37:18.532Z,0
2017-10-29T02:38:28.953Z,0
2017-10-29T02:39:39.358Z,0
2017-10-29T02:40:49.449Z,0
2017-10-29T02:41:59.862Z,0
2017-10-29T02:43:10.288Z,0
2017-10-29T02:44:20.360Z,0
2017-10-29T02:45:30.437Z,0
2017-10-29T02:46:40.502Z,0
2017-10-29T02:47:50.899Z,0
2017-10-29T02:49:01.349Z,0
2017-10-29T02:50:11.773Z,0
2017-10-29T02:51:22.194Z,0
2017-10-29T02:52:32.582Z,0
2017-10-29T02:53:43.013Z,0
2017-10-29T02:54:53.470Z,0
2017-10-29T02:56:03.879Z,0
2017-10-29T02:57:14.269Z,0
2017-10-29T02:58:24.342Z,0
2017-10-29T02:59:34.743Z,0
2017-10-29T03:00:44.881Z,0
2017-10-29T03:01:55.285Z,0
2017-10-29T03:33:16.415Z,0
2017-10-29T03:34:26.819Z,0
2017-10-29T03:35:37.216Z,0
2017-10-29T03:36:47.616Z,0
2017-10-29T03:37:58.007Z,0
2017-10-29T03:39:08.084Z,0
2017-10-29T03:40:18.512Z,0
2017-10-29T03:41:27.924Z,0
2017-10-29T03:42:37.657Z,0
2017-10-29T03:43:48.048Z,0
2017-10-29T03:44:58.520Z,0
2017-10-29T03:46:08.918Z,0
2017-10-29T03:47:19.305Z,0
2017-10-29T03:48:29.404Z,0
2017-10-29T03:49:39.820Z,0
2017-10-29T03:50:50.295Z,0
2017-10-29T03:52:00.695Z,0
2017-10-29T03:53:10.763Z,0
2017-10-29T03:54:20.506Z,0
2017-10-29T03:55:30.567Z,0
2017-10-29T03:56:40.651Z,0
2017-10-29T03:57:51.092Z,0
2017-10-29T03:59:01.490Z,0
2017-10-29T04:00:11.592Z,0
2017-10-29T04:01:22.013Z,0
2017-10-29T04:02:32.474Z,0
2017-10-29T04:03:42.870Z,0
2017-10-29T04:04:52.940Z,0
2017-10-29T04:06:03.323Z,0
2017-10-29T04:07:13.711Z,0
2017-10-29T04:08:23.859Z,0
2017-10-29T04:09:34.248Z,0
2017-10-29T04:10:44.311Z,0
2017-10-29T04:11:54.727Z,0
2017-10-29T04:13:05.118Z,0
2017-10-29T04:14:15.535Z,0
2017-10-29T04:15:25.922Z,0
2017-10-29T04:16:36.328Z,0
2017-10-29T04:17:46.724Z,0
2017-10-29T04:18:57.131Z,0
2017-10-29T04:20:06.870Z,0
2017-10-29T04:21:16.935Z,0
2017-10-29T04:22:27.330Z,0
2017-10-29T04:23:37.406Z,0
2017-10-29T04:24:47.813Z,0
2017-10-29T04:25:58.206Z,0
2017-10-29T04:27:08.604Z,0
2017-10-29T04:28:18.676Z,0
2017-10-29T04:29:29.077Z,0
2017-10-29T04:30:39.144Z,0
2017-10-29T04:31:49.281Z,0
2017-10-29T04:32:59.686Z,0
2017-10-29T04:34:10.090Z,0
2017-10-29T04:35:20.390Z,0
2017-10-29T04:36:30.456Z,0
2017-10-29T04:37:40.881Z,0
2017-10-29T04:38:51.277Z,0
2017-10-29T04:40:01.676Z,0
2017-10-29T04:41:12.098Z,0
2017-10-29T04:42:22.499Z,0
2017-10-29T04:43:32.919Z,0
2017-10-29T04:44:42.679Z,0
2017-10-29T04:45:53.087Z,0
2017-10-29T04:47:03.499Z,0
2017-10-29T04:48:13.897Z,0
2017-10-29T04:49:24.302Z,0
2017-10-29T04:50:34.696Z,0
2017-10-29T04:51:45.092Z,0
2017-10-29T04:52:55.161Z,0
2017-10-29T04:54:05.555Z,0
2017-10-29T04:55:15.969Z,0
2017-10-29T04:56:26.387Z,0
2017-10-29T04:57:36.771Z,0
2017-10-29T04:58:47.182Z,0
2017-10-29T04:59:57.254Z,0
2017-10-29T05:01:07.376Z,0
2017-10-29T05:02:17.778Z,0
2017-10-29T05:03:28.193Z,0
2017-10-29T05:04:38.606Z,0
2017-10-29T05:05:48.987Z,0
2017-10-29T05:06:59.068Z,0
2017-10-29T05:08:09.483Z,0
2017-10-29T05:09:19.902Z,0
2017-10-29T05:10:30.309Z,0
2017-10-29T05:11:40.712Z,0
2017-10-29T05:12:51.158Z,0
2017-10-29T05:14:01.243Z,0
2017-10-29T05:15:11.328Z,0
2017-10-29T05:16:21.722Z,4
2017-10-29T05:17:31.815Z,4
2017-10-29T05:18:42.216Z,4
2017-10-29T05:19:52.624Z,0
2017-10-29T05:21:03.030Z,0
2017-10-29T05:22:13.420Z,4
2017-10-29T05:23:23.837Z,4
2017-10-29T05:24:33.912Z,4
2017-10-29T05:25:43.986Z,8
2017-10-29T05:26:54.408Z,8
2017-10-29T05:28:04.129Z,12
2017-10-29T05:29:13.871Z,12
2017-10-29T05:30:26.178Z,16
2017-10-29T05:31:40.353Z,16
2017-10-29T05:32:54.280Z,20
2017-10-29T05:34:04.366Z,20
2017-10-29T05:35:14.778Z,20
2017-10-29T05:36:25.190Z,24
2017-10-29T05:37:35.279Z,28
2017-10-29T05:38:45.691Z,32
2017-10-29T05:39:56.085Z,36
2017-10-29T05:41:05.857Z,40
2017-10-29T05:42:16.260Z,48
2017-10-29T05:43:26.670Z,60
2017-10-29T05:44:36.740Z,64
2017-10-29T05:45:46.833Z,76
2017-10-29T05:46:57.231Z,80
2017-10-29T05:48:07.657Z,80
2017-10-29T05:49:18.057Z,80
2017-10-29T05:50:28.125Z,84
2017-10-29T05:51:38.208Z,88
2017-10-29T05:52:48.613Z,92
2017-10-29T05:53:58.700Z,100
2017-10-29T05:55:09.098Z,108
2017-10-29T05:56:19.499Z,124
2017-10-29T05:57:29.593Z,140
2017-10-29T05:58:39.997Z,152
2017-10-29T05:59:50.399Z,152
2017-10-29T06:01:00.803Z,152
2017-10-29T06:02:11.217Z,160
2017-10-29T06:03:21.603Z,172
2017-10-29T06:04:32.039Z,192
2017-10-29T06:05:42.112Z,220
2017-10-29T06:06:52.489Z,248
2017-10-29T06:08:02.891Z,264
2017-10-29T06:09:12.969Z,272
2017-10-29T06:10:23.041Z,292
2017-10-29T06:11:33.448Z,300
2017-10-29T06:12:43.543Z,300
2017-10-29T06:13:53.648Z,304
2017-10-29T06:15:03.741Z,296
2017-10-29T06:16:14.205Z,292
2017-10-29T06:17:24.288Z,268
2017-10-29T06:18:34.695Z,260
2017-10-29T06:19:44.768Z,256
2017-10-29T06:20:55.215Z,252
2017-10-29T06:22:05.669Z,272
2017-10-29T06:23:15.744Z,312
2017-10-29T06:24:26.157Z,344
2017-10-29T06:25:36.551Z,360
2017-10-29T06:26:46.328Z,368
2017-10-29T06:27:56.796Z,388
2017-10-29T06:29:07.203Z,408
2017-10-29T06:30:17.297Z,416
2017-10-29T06:31:27.725Z,432
2017-10-29T06:32:38.148Z,460
2017-10-29T06:33:48.557Z,488
2017-10-29T06:34:58.633Z,532
2017-10-29T06:36:08.388Z,588
2017-10-29T06:37:18.776Z,660
2017-10-29T06:38:29.197Z,720
2017-10-29T06:39:39.996Z,728
2017-10-29T06:40:50.387Z,740
2017-10-29T06:42:00.462Z,780
2017-10-29T06:43:10.867Z,816
2017-10-29T06:44:20.931Z,820
2017-10-29T06:45:31.366Z,820
2017-10-29T06:46:41.446Z,812
2017-10-29T06:47:51.839Z,832
2017-10-29T06:49:02.274Z,848
2017-10-29T06:50:12.348Z,876
2017-10-29T06:51:22.512Z,852
2017-10-29T06:52:32.923Z,848
2017-10-29T06:53:43.330Z,844
2017-10-29T06:54:53.076Z,876
2017-10-29T06:56:03.469Z,884
2017-10-29T06:57:13.624Z,876
2017-10-29T06:58:24.053Z,848
2017-10-29T06:59:34.476Z,820
2017-10-29T07:00:44.898Z,812
2017-10-29T07:01:54.990Z,824
2017-10-29T07:03:05.100Z,840
2017-10-29T07:04:15.496Z,852
2017-10-29T07:05:25.570Z,860
2017-10-29T07:06:35.984Z,844
2017-10-29T07:07:45.724Z,808
2017-10-29T07:08:56.152Z,768
2017-10-29T07:10:06.574Z,776
2017-10-29T07:11:17.005Z,764
2017-10-29T07:12:27.071Z,772
2017-10-29T07:13:37.472Z,812
2017-10-29T07:14:47.948Z,808
2017-10-29T07:15:57.709Z,860
2017-10-29T07:17:08.074Z,920
2017-10-29T07:18:18.148Z,920
2017-10-29T07:19:28.554Z,948
2017-10-29T07:20:38.955Z,972
2017-10-29T07:21:49.358Z,1000
2017-10-29T07:22:59.439Z,1016
2017-10-29T07:24:09.843Z,1044
2017-10-29T07:25:19.607Z,1064
2017-10-29T07:26:30.075Z,1140
2017-10-29T07:27:39.825Z,1320
2017-10-29T07:28:49.911Z,1444
2017-10-29T07:30:00.326Z,1460
2017-10-29T07:31:10.727Z,1472
2017-10-29T07:32:21.179Z,1460
2017-10-29T07:33:31.584Z,1452
2017-10-29T07:34:41.688Z,1568
2017-10-29T07:35:51.759Z,1640
2017-10-29T07:37:02.158Z,1696
2017-10-29T07:38:12.548Z,1760
2017-10-29T07:39:22.942Z,1820
2017-10-29T07:40:33.359Z,1804
2017-10-29T07:41:43.446Z,1740
2017-10-29T07:42:53.830Z,1696
2017-10-29T07:44:04.301Z,1716
2017-10-29T07:45:14.767Z,1724
2017-10-29T07:46:25.181Z,1640
2017-10-29T07:47:35.615Z,1516
2017-10-29T07:48:45.690Z,1424
2017-10-29T07:49:56.170Z,1380
2017-10-29T07:51:06.577Z,1296
2017-10-29T07:52:17.017Z,1200
2017-10-29T07:53:27.443Z,1160
2017-10-29T07:54:37.845Z,1208
2017-10-29T07:55:48.312Z,1256
2017-10-29T07:56:58.732Z,1292
2017-10-29T07:58:09.148Z,1268
2017-10-29T07:59:19.540Z,1216
2017-10-29T08:00:29.932Z,1160
2017-10-29T08:01:40.392Z,1128
2017-10-29T08:02:50.147Z,1108
2017-10-29T08:04:00.570Z,1088
2017-10-29T08:05:10.997Z,1172
2017-10-29T08:06:21.054Z,1316
2017-10-29T08:07:31.155Z,1484
2017-10-29T08:08:41.573Z,1624
2017-10-29T08:09:51.631Z,1696
2017-10-29T08:11:01.719Z,1748
2017-10-29T08:12:12.154Z,1764
2017-10-29T08:13:22.625Z,1680
2017-10-29T08:14:32.707Z,1516
2017-10-29T08:15:42.778Z,1356
2017-10-29T08:16:53.151Z,1308
2017-10-29T08:18:03.553Z,1348
2017-10-29T08:19:13.670Z,1420
2017-10-29T08:20:23.418Z,1516
2017-10-29T08:21:33.173Z,1704
2017-10-29T08:22:43.596Z,1740
2017-10-29T08:23:53.676Z,1720
2017-10-29T08:25:03.152Z,1768
2017-10-29T08:26:13.560Z,1888
2017-10-29T08:27:23.976Z,2000
2017-10-29T08:28:34.062Z,2144
2017-10-29T08:29:43.829Z,2240
2017-10-29T08:30:53.973Z,2508
2017-10-29T08:32:04.374Z,2788
2017-10-29T08:33:14.781Z,2868
2017-10-29T08:34:25.192Z,2792
2017-10-29T08:35:35.619Z,2728
2017-10-29T08:36:45.690Z,2760
2017-10-29T08:37:56.098Z,2724
2017-10-29T08:39:06.170Z,2420
2017-10-29T08:40:16.266Z,2072
2017-10-29T08:41:26.705Z,2252
2017-10-29T08:42:36.780Z,2460
2017-10-29T08:43:46.869Z,2436
2017-10-29T08:44:57.287Z,2368
2017-10-29T08:46:07.355Z,2580
2017-10-29T08:47:17.753Z,2856
2017-10-29T08:48:28.148Z,3352
2017-10-29T08:49:38.248Z,3812
2017-10-29T08:50:48.326Z,3400
2017-10-29T08:51:58.394Z,3468
2017-10-29T08:53:08.819Z,3632
2017-10-29T08:54:19.267Z,4040
2017-10-29T08:55:29.674Z,4328
2017-10-29T08:56:40.076Z,3092
2017-10-29T08:57:50.493Z,2832
2017-10-29T08:59:00.581Z,3016
2017-10-29T09:00:10.990Z,2644
2017-10-29T09:01:21.400Z,2224
2017-10-29T09:02:31.813Z,1956
2017-10-29T09:03:42.249Z,2004
2017-10-29T09:04:52.678Z,1672
2017-10-29T09:06:03.082Z,1636
2017-10-29T09:07:13.173Z,1200
2017-10-29T09:08:23.600Z,1024
2017-10-29T09:09:33.706Z,936
2017-10-29T09:10:44.142Z,852
2017-10-29T09:11:54.229Z,792
2017-10-29T09:13:04.299Z,684
2017-10-29T09:14:14.368Z,644
2017-10-29T09:15:24.471Z,536
2017-10-29T09:16:34.895Z,476
2017-10-29T09:17:45.355Z,432
2017-10-29T09:18:55.770Z,404
2017-10-29T09:20:05.863Z,348
2017-10-29T09:21:15.929Z,320
2017-10-29T09:22:26.011Z,280
2017-10-29T09:23:36.096Z,348
2017-10-29T09:24:46.528Z,344
2017-10-29T09:25:56.957Z,296
2017-10-29T09:27:07.384Z,312
2017-10-29T09:28:17.784Z,404
2017-10-29T09:29:28.197Z,476
2017-10-29T09:30:38.306Z,512
2017-10-29T09:31:48.754Z,532
2017-10-29T09:32:59.180Z,544
2017-10-29T09:34:09.623Z,560
2017-10-29T09:35:20.092Z,584
2017-10-29T09:36:30.530Z,600
2017-10-29T09:37:40.614Z,648
2017-10-29T09:38:51.026Z,696
2017-10-29T09:40:01.105Z,720
2017-10-29T09:41:11.244Z,736
2017-10-29T09:42:21.317Z,752
2017-10-29T09:43:31.758Z,780
2017-10-29T09:44:42.182Z,852
2017-10-29T09:45:52.595Z,996
2017-10-29T09:47:02.726Z,1072
2017-10-29T09:48:13.148Z,1108
2017-10-29T09:49:23.574Z,1056
2017-10-29T09:50:33.658Z,1140
2017-10-29T09:51:44.058Z,1340
2017-10-29T09:52:54.462Z,1780
2017-10-29T09:54:04.862Z,1880
2017-10-29T09:55:15.305Z,1988
2017-10-29T09:56:25.380Z,1964
2017-10-29T09:57:35.455Z,1732
2017-10-29T09:58:44.873Z,1448
2017-10-29T09:59:54.630Z,1044
2017-10-29T10:01:04.729Z,868
2017-10-29T10:02:15.180Z,788
2017-10-29T10:03:25.276Z,788
2017-10-29T10:04:35.415Z,808
2017-10-29T10:05:45.825Z,796
2017-10-29T10:06:56.246Z,844
2017-10-29T10:08:05.982Z,968
2017-10-29T10:09:16.396Z,1212
2017-10-29T10:10:26.483Z,1608
2017-10-29T10:11:36.908Z,2032
2017-10-29T10:12:47.319Z,2164
2017-10-29T10:13:57.401Z,2168
2017-10-29T10:15:07.828Z,2280
2017-10-29T10:16:18.234Z,2640
2017-10-29T10:17:28.627Z,3200
2017-10-29T10:18:38.714Z,3220
2017-10-29T10:19:49.141Z,3612
2017-10-29T10:20:59.545Z,3852
2017-10-29T10:22:09.944Z,3656
2017-10-29T10:23:20.349Z,3204
2017-10-29T10:24:30.423Z,2640
2017-10-29T10:25:40.179Z,2308
2017-10-29T10:26:50.581Z,2108
2017-10-29T10:28:00.989Z,1932
2017-10-29T10:29:10.770Z,1856
2017-10-29T10:30:21.197Z,1888
2017-10-29T10:31:31.607Z,1964
2017-10-29T10:32:42.035Z,1968
2017-10-29T10:33:52.473Z,1892
2017-10-29T10:35:02.866Z,1868
2017-10-29T10:36:13.266Z,1840
2017-10-29T10:37:23.689Z,1680
2017-10-29T10:38:34.119Z,1544
2017-10-29T10:39:44.591Z,1448
2017-10-29T10:40:54.678Z,1356
2017-10-29T10:42:04.741Z,1484
2017-10-29T10:43:15.126Z,1776
2017-10-29T10:44:25.230Z,2136
2017-10-29T10:45:35.354Z,2452
2017-10-29T10:46:45.768Z,2620
2017-10-29T10:47:56.169Z,2808
2017-10-29T10:49:06.602Z,2372
2017-10-29T10:50:17.029Z,2628
2017-10-29T10:51:27.142Z,2136
2017-10-29T10:52:37.229Z,2092
2017-10-29T10:53:46.661Z,2380
2017-10-29T10:54:57.059Z,3224
2017-10-29T10:56:08.043Z,5352
2017-10-29T10:57:18.466Z,5120
2017-10-29T10:58:29.347Z,7528
2017-10-29T10:59:39.771Z,7008
2017-10-29T11:00:49.844Z,6756
2017-10-29T11:02:00.241Z,1860
2017-10-29T11:03:10.730Z,1900
2017-10-29T11:04:21.141Z,2000
2017-10-29T11:05:31.531Z,2060
2017-10-29T11:06:41.279Z,2292
2017-10-29T11:07:51.694Z,2672
2017-10-29T11:09:02.140Z,2876
2017-10-29T11:10:12.553Z,2936
2017-10-29T11:11:23.003Z,2936
2017-10-29T11:12:33.408Z,2864
2017-10-29T11:13:43.862Z,2896
2017-10-29T11:14:54.310Z,2980
2017-10-29T11:16:04.716Z,2872
2017-10-29T11:17:15.142Z,2668
2017-10-29T11:18:25.568Z,2532
2017-10-29T11:19:35.983Z,3536
2017-10-29T11:20:46.076Z,3804
2017-10-29T11:21:56.155Z,3464
2017-10-29T11:23:06.246Z,2708
2017-10-29T11:24:16.687Z,7604
2017-10-29T11:25:27.109Z,3988
2017-10-29T11:26:37.569Z,7660
2017-10-29T11:27:48.173Z,7476
2017-10-29T11:28:58.242Z,7432
2017-10-29T11:30:08.694Z,7388
2017-10-29T11:31:19.111Z,7412
2017-10-29T11:32:29.533Z,7388
2017-10-29T11:33:39.944Z,7376
2017-10-29T11:34:50.351Z,7348
2017-10-29T11:36:00.433Z,7336
2017-10-29T11:37:10.845Z,7352
2017-10-29T11:38:21.293Z,7332
2017-10-29T11:39:31.373Z,7372
2017-10-29T11:40:41.786Z,7344
2017-10-29T11:41:52.211Z,7356
2017-10-29T11:43:02.608Z,7472
2017-10-29T11:44:13.109Z,7484
2017-10-29T11:45:23.543Z,7396
2017-10-29T11:46:33.974Z,7408
2017-10-29T11:47:44.066Z,7444
2017-10-29T11:48:53.819Z,7464
2017-10-29T11:50:04.284Z,7456
2017-10-29T11:51:14.361Z,7544
2017-10-29T11:52:24.766Z,7316
2017-10-29T11:53:35.191Z,7556
2017-10-29T11:54:45.610Z,7636
2017-10-29T11:55:56.100Z,7680
2017-10-29T11:57:06.522Z,7672
2017-10-29T11:58:16.953Z,7864
2017-10-29T11:59:27.385Z,7836
2017-10-29T12:00:37.839Z,8192
2017-10-29T12:01:48.321Z,8256
2017-10-29T12:02:58.726Z,8256
2017-10-29T12:04:08.480Z,8276
2017-10-29T12:05:18.914Z,8136
2017-10-29T12:06:29.007Z,8176
2017-10-29T12:07:39.471Z,8108
2017-10-29T12:08:49.889Z,8080
2017-10-29T12:10:00.007Z,8296
2017-10-29T12:11:10.405Z,8084
2017-10-29T12:12:20.825Z,8136
2017-10-29T12:13:31.311Z,8256
2017-10-29T12:14:41.740Z,8404
2017-10-29T12:15:52.167Z,8244
2017-10-29T12:17:02.575Z,8116
2017-10-29T12:18:13.015Z,8144
2017-10-29T12:19:23.136Z,8248
2017-10-29T12:20:33.550Z,8416
2017-10-29T12:21:43.648Z,8140
2017-10-29T12:22:53.404Z,8032
2017-10-29T12:24:03.829Z,7876
2017-10-29T12:25:14.227Z,7960
2017-10-29T12:26:24.679Z,7812
2017-10-29T12:27:34.758Z,7716
2017-10-29T12:28:45.166Z,7668
2017-10-29T12:29:54.904Z,7652
2017-10-29T12:31:04.715Z,7376
2017-10-29T12:32:15.134Z,7300
2017-10-29T12:33:25.539Z,7304
2017-10-29T12:34:35.960Z,7260
2017-10-29T12:35:46.372Z,7184
2017-10-29T12:36:56.839Z,7136
2017-10-29T12:38:07.272Z,7160
2017-10-29T12:39:17.698Z,6992
2017-10-29T12:40:28.118Z,6892
2017-10-29T12:41:37.870Z,6888
2017-10-29T12:42:48.394Z,6776
2017-10-29T12:43:58.508Z,6656
2017-10-29T12:45:08.944Z,6700
2017-10-29T12:46:19.376Z,6632
2017-10-29T12:47:29.160Z,6680
2017-10-29T12:48:39.630Z,6684
2017-10-29T12:49:50.053Z,6556
2017-10-29T12:51:00.508Z,6564
2017-10-29T12:52:10.601Z,6448
2017-10-29T12:53:21.069Z,6492
2017-10-29T12:54:31.515Z,6520
2017-10-29T12:55:41.272Z,2192
2017-10-29T12:56:51.358Z,6312
2017-10-29T12:58:01.799Z,6236
2017-10-29T12:59:12.181Z,6296
2017-10-29T13:00:22.644Z,6288
2017-10-29T13:01:33.060Z,6336
2017-10-29T13:02:43.418Z,6400
2017-10-29T13:03:52.842Z,6460
2017-10-29T13:05:02.961Z,6460
2017-10-29T13:06:13.041Z,6564
2017-10-29T13:07:23.479Z,6476
2017-10-29T13:08:33.897Z,6284
2017-10-29T13:09:43.987Z,6232
2017-10-29T13:10:54.438Z,6344
2017-10-29T13:12:04.862Z,6744
2017-10-29T13:13:15.307Z,6780
2017-10-29T13:14:25.736Z,6756
2017-10-29T13:15:35.511Z,6696
2017-10-29T13:16:46.697Z,6648
2017-10-29T13:17:56.769Z,2820
2017-10-29T13:19:06.852Z,3480
2017-10-29T13:20:16.294Z,6428
2017-10-29T13:21:26.732Z,6232
2017-10-29T13:22:37.148Z,6272
2017-10-29T13:23:47.579Z,5420
2017-10-29T13:24:57.676Z,2208
2017-10-29T13:26:08.072Z,5760
2017-10-29T13:27:18.174Z,2804
2017-10-29T13:28:28.595Z,2452
2017-10-29T13:29:39.027Z,3632
2017-10-29T13:30:49.119Z,2812
2017-10-29T13:31:59.211Z,4256
2017-10-29T13:33:09.665Z,3028
2017-10-29T13:34:19.777Z,5620
2017-10-29T13:35:30.478Z,5624
2017-10-29T13:36:40.572Z,2528
2017-10-29T13:37:50.996Z,2200
2017-10-29T13:39:01.407Z,5392
2017-10-29T13:40:11.843Z,5308
2017-10-29T13:41:21.935Z,5276
2017-10-29T13:42:32.021Z,5132
2017-10-29T13:43:42.435Z,4692
2017-10-29T13:44:52.534Z,5280
2017-10-29T13:46:02.621Z,4884
2017-10-29T13:47:13.096Z,1776
2017-10-29T13:48:23.538Z,4712
2017-10-29T13:49:33.306Z,4704
2017-10-29T13:50:43.747Z,4656
2017-10-29T13:51:54.022Z,4652
2017-10-29T13:53:04.153Z,4608
2017-10-29T13:54:14.573Z,4524
2017-10-29T13:55:25.007Z,4480
2017-10-29T13:56:35.434Z,4380
2017-10-29T13:57:46.567Z,4364
2017-10-29T13:58:57.052Z,4252
2017-10-29T14:00:07.474Z,4152
2017-10-29T14:01:17.580Z,4288
2017-10-29T14:02:28.015Z,4148
2017-10-29T14:03:38.430Z,4056
2017-10-29T14:04:48.586Z,4056
2017-10-29T14:05:59.021Z,3980
2017-10-29T14:07:09.426Z,2412
2017-10-29T14:08:19.828Z,2016
2017-10-29T14:09:29.577Z,3844
2017-10-29T14:10:39.987Z,3832
2017-10-29T14:11:50.410Z,3796
2017-10-29T14:13:00.480Z,3772
2017-10-29T14:14:10.600Z,3672
2017-10-29T14:15:21.022Z,3628
2017-10-29T14:16:31.451Z,2612
2017-10-29T14:17:41.529Z,3536
2017-10-29T14:18:51.924Z,3496
2017-10-29T14:20:02.338Z,3376
2017-10-29T14:21:12.416Z,3296
2017-10-29T14:22:22.862Z,2080
2017-10-29T14:23:33.280Z,1372
2017-10-29T14:24:43.716Z,1344
2017-10-29T14:25:53.809Z,2132
2017-10-29T14:27:03.915Z,2888
2017-10-29T14:28:14.426Z,1620
2017-10-29T14:29:24.844Z,1288
2017-10-29T14:30:35.260Z,1756
2017-10-29T14:31:45.700Z,2728
2017-10-29T14:32:56.106Z,1252
2017-10-29T14:34:06.531Z,2696
2017-10-29T14:35:16.933Z,2672
2017-10-29T14:36:27.368Z,2692
2017-10-29T14:37:37.796Z,2576
2017-10-29T14:38:48.589Z,2528
2017-10-29T14:39:59.070Z,2424
2017-10-29T14:41:09.492Z,2408
2017-10-29T14:42:19.915Z,2288
2017-10-29T14:43:30.350Z,2152
2017-10-29T14:44:40.433Z,2048
2017-10-29T14:45:50.952Z,1884
2017-10-29T14:47:01.353Z,1840
2017-10-29T14:48:11.794Z,1732
2017-10-29T14:49:22.261Z,1000
2017-10-29T14:50:32.702Z,928
2017-10-29T14:51:42.797Z,1460
2017-10-29T14:52:52.556Z,1220
2017-10-29T14:54:02.973Z,1000
2017-10-29T14:55:13.412Z,852
2017-10-29T14:56:23.829Z,1020
2017-10-29T14:57:34.239Z,652
2017-10-29T14:58:44.678Z,916
2017-10-29T14:59:54.768Z,580
2017-10-29T15:01:05.196Z,756
2017-10-29T15:02:15.613Z,508
2017-10-29T15:03:26.101Z,476
2017-10-29T15:04:36.513Z,560
2017-10-29T15:05:47.364Z,384
2017-10-29T15:06:57.782Z,376
2017-10-29T15:08:07.879Z,388
2017-10-29T15:09:18.297Z,412
2017-10-29T15:10:28.719Z,332
2017-10-29T15:11:39.137Z,280
2017-10-29T15:12:49.564Z,232
2017-10-29T15:13:59.980Z,208
2017-10-29T15:15:10.437Z,184
2017-10-29T15:16:20.538Z,168
2017-10-29T15:17:30.966Z,156
2017-10-29T15:18:41.392Z,136
2017-10-29T15:19:51.794Z,128
2017-10-29T15:21:02.259Z,128
2017-10-29T15:22:12.678Z,132
2017-10-29T15:23:23.106Z,140
2017-10-29T15:24:33.524Z,164
2017-10-29T15:25:43.941Z,176
2017-10-29T15:26:54.034Z,172
2017-10-29T15:28:04.477Z,156
2017-10-29T15:29:14.897Z,132
2017-10-29T15:30:25.324Z,104
2017-10-29T15:31:35.412Z,84
2017-10-29T15:32:45.846Z,80
2017-10-29T15:33:55.924Z,84
2017-10-29T15:35:06.374Z,88
2017-10-29T15:36:16.792Z,84
2017-10-29T15:37:27.200Z,80
2017-10-29T15:38:37.963Z,76
2017-10-29T15:39:48.980Z,68
2017-10-29T15:40:59.391Z,60
2017-10-29T15:42:09.847Z,48
2017-10-29T15:43:20.383Z,40
2017-10-29T15:44:30.821Z,36
2017-10-29T15:45:40.904Z,32
2017-10-29T15:46:50.992Z,36
2017-10-29T15:48:01.402Z,32
2017-10-29T15:49:11.516Z,28
2017-10-29T15:50:21.932Z,24
2017-10-29T15:51:32.026Z,24
2017-10-29T15:52:42.482Z,20
2017-10-29T15:53:52.572Z,16
2017-10-29T15:55:02.991Z,16
2017-10-29T15:56:13.145Z,12
2017-10-29T15:57:23.574Z,8
2017-10-29T15:58:33.988Z,8
2017-10-29T15:59:44.422Z,8
2017-10-29T16:00:54.498Z,8
2017-10-29T16:02:04.252Z,4
2017-10-29T16:03:14.704Z,4
2017-10-29T16:04:25.160Z,4
2017-10-29T16:05:35.586Z,4
2017-10-29T16:06:46.010Z,0
2017-10-29T16:07:56.145Z,0
2017-10-29T16:09:06.237Z,4
2017-10-29T16:10:16.685Z,4
2017-10-29T16:11:27.079Z,0
2017-10-29T16:12:37.502Z,0
2017-10-29T16:13:47.963Z,0
2017-10-29T16:14:57.385Z,0
2017-10-29T16:16:07.792Z,0
2017-10-29T16:17:17.567Z,0
2017-10-29T16:18:27.977Z,0
2017-10-29T16:19:38.441Z,0
2017-10-29T16:20:48.887Z,0
2017-10-29T16:21:59.318Z,0
2017-10-29T16:23:09.826Z,0
2017-10-29T16:24:20.268Z,0
2017-10-29T16:25:30.794Z,0
2017-10-29T16:26:41.233Z,0
2017-10-29T16:27:51.647Z,0
2017-10-29T16:29:02.105Z,0
2017-10-29T16:30:12.539Z,0
2017-10-29T16:31:22.961Z,0
2017-10-29T16:32:33.044Z,0
2017-10-29T16:33:43.167Z,0
2017-10-29T16:34:53.593Z,0
2017-10-29T16:36:04.018Z,0
2017-10-29T16:37:14.149Z,0
2017-10-29T16:38:24.600Z,0
2017-10-29T16:39:34.393Z,0
2017-10-29T16:40:44.850Z,0
2017-10-29T16:41:55.274Z,0
2017-10-29T16:43:05.701Z,0
2017-10-29T16:44:16.137Z,0
2017-10-29T16:45:26.538Z,0
2017-10-29T16:46:36.687Z,0
2017-10-29T16:47:47.105Z,0
2017-10-29T16:48:57.521Z,0
2017-10-29T16:50:08.006Z,0
2017-10-29T16:51:18.412Z,0
2017-10-29T16:52:28.848Z,0
2017-10-29T16:53:39.252Z,0
2017-10-29T16:54:49.758Z,0
2017-10-29T16:56:00.236Z,0
2017-10-29T16:57:10.681Z,0
2017-10-29T16:58:20.769Z,0
2017-10-29T16:59:31.186Z,0
2017-10-29T17:00:41.641Z,0